Turtle River, Minnesota
Current Conditions -  °F | °C
As of 4:13 AM on Tuesday 21 Oct 2014 (Local Time) from KBJI Reporting Station
Clear Clear  
Wind Chill: 28°   Ceiling: Unl
Heat Index: 33°   Visibility: 10mi
Dew Point: 32°   Wind: 6mph
Humidity: 97%   Direction: 140°SE
Pressure: 30.12"   Gusts: NA
Location:  47.5271°N, 94.7611°W
Report Text: KBJI 210913Z AUTO 14005KT 10SM CLR 01/00 A3012 RMK AO2 T00060002
Loading
Personal Weather Stations






























Interactive Weather Map
Tropical Storm Tracking
New forecast layout! Learn more

10-Day Weather Forecast

Advertisements
Track Severe Weather on mobile